Главная страница
METAR-TAF:

METAR-TAF

Аэропорты :

Калабар, Нигерия

широта: 04-58N, долгота: 008-21E, высота над уровнем моря: 63 м

Текущие метеонаблюдения

Эта сводка был подготовлена 11 часа и 15 минут назад, в 16:00 UTC
Ветер 11 Узел от южный
Температура 30°C
Влажность 75%
Давление 1010 hPa
Видимость 10 км и более
Отдельные облака на высоте 1200 фута

METAR: DNCA 231600Z 19011KT 9999 SCT012 30/25 Q1010

Время: 04:15 (03:15 UTC)


TAF: отсутствует

Метеонаблюдения и прогнозы для более 4000 аэропортов (сводки METAR и TAF).

Имеющиеся станции представлены на карте желтыми и красными точками.

Чтобы увидеть название станции, наведите на нее мышь.

Затем щелкните, чтобы увидеть метеонаблюдения и метеопрогнозы.

Управление картой: чтобы увеличить масштаб, щелкните зеленые кнопки с черным крестиком; чтобы уменьшить масштаб, щелкните зеленую кнопку с тире; для просмотра соседних карт щелкайте зеленые стрелки.


METAR-TAF: